Time,TemperatureF,DewpointF,PressureIn,WindDirection,WindDirectionDegrees,WindSpeedMPH,WindSpeedGustMPH,Humidity,HourlyPrecipIn,Conditions,Clouds,dailyrainin,SoftwareType,DateUTC
2013-02-19 00:01:00,26.0,21.0,29.87,ENE,76,0.0,1.0,81,0.00,,,0.00,,2013-02-19 08:01:00,
2013-02-19 00:11:00,26.0,21.0,29.87,ENE,76,0.0,1.0,81,0.00,,,0.00,,2013-02-19 08:11:00,
2013-02-19 00:21:00,25.0,20.0,29.87,ENE,76,3.0,3.0,82,0.00,,,0.00,,2013-02-19 08:21:00,
2013-02-19 00:31:00,25.0,20.0,29.87,East,93,1.0,2.0,82,0.00,,,0.00,,2013-02-19 08:31:00,
2013-02-19 00:41:00,25.0,20.0,29.87,East,93,1.0,2.0,82,0.00,,,0.00,,2013-02-19 08:41:00,
2013-02-19 00:52:00,25.0,21.0,29.86,East,93,1.0,2.0,83,0.00,,,0.00,,2013-02-19 08:52:00,
2013-02-19 01:01:00,26.0,21.0,29.85,East,98,3.0,5.0,82,0.00,,,0.00,,2013-02-19 09:01:00,
2013-02-19 01:11:00,26.0,21.0,29.85,East,98,3.0,5.0,82,0.00,,,0.00,,2013-02-19 09:11:00,
2013-02-19 01:21:00,25.0,20.0,29.85,East,98,0.0,3.0,80,0.00,,,0.00,,2013-02-19 09:21:00,
2013-02-19 01:31:00,23.0,19.0,29.85,East,98,1.0,3.0,84,0.00,,,0.00,,2013-02-19 09:31:00,
2013-02-19 01:41:00,23.0,19.0,29.85,East,98,1.0,3.0,84,0.00,,,0.00,,2013-02-19 09:41:00,
2013-02-19 01:52:00,22.0,18.0,29.85,East,98,3.0,5.0,85,0.00,,,0.00,,2013-02-19 09:52:00,
2013-02-19 02:01:00,23.0,19.0,29.85,ESE,117,4.0,6.0,85,0.00,,,0.00,,2013-02-19 10:01:00,
2013-02-19 02:11:00,23.0,19.0,29.85,ESE,117,4.0,6.0,85,0.00,,,0.00,,2013-02-19 10:11:00,
2013-02-19 02:21:00,23.0,19.0,29.84,SE,144,2.0,5.0,86,0.00,,,0.00,,2013-02-19 10:21:00,
2013-02-19 02:31:00,24.0,20.0,29.84,SW,225,2.0,3.0,85,0.00,,,0.00,,2013-02-19 10:31:00,
2013-02-19 02:41:00,24.0,20.0,29.84,SW,225,2.0,3.0,85,0.00,,,0.00,,2013-02-19 10:41:00,
2013-02-19 02:51:00,23.0,19.0,29.83,SW,227,3.0,3.0,85,0.00,,,0.00,,2013-02-19 10:51:00,
2013-02-19 03:01:00,22.0,19.0,29.83,SW,221,1.0,2.0,87,0.00,,,0.00,,2013-02-19 11:01:00,
2013-02-19 03:11:00,22.0,19.0,29.83,SW,221,1.0,2.0,87,0.00,,,0.00,,2013-02-19 11:11:00,
2013-02-19 03:21:00,22.0,19.0,29.83,SW,221,2.0,3.0,88,0.00,,,0.00,,2013-02-19 11:21:00,
2013-02-19 03:31:00,22.0,19.0,29.83,SW,221,2.0,3.0,88,0.00,,,0.00,,2013-02-19 11:31:00,
2013-02-19 03:41:00,22.0,19.0,29.83,SW,221,2.0,3.0,88,0.00,,,0.00,,2013-02-19 11:41:00,
2013-02-19 03:51:00,23.0,19.0,29.83,SW,221,2.0,3.0,86,0.00,,,0.00,,2013-02-19 11:51:00,
2013-02-19 04:01:00,23.0,20.0,29.83,SW,221,3.0,3.0,87,0.00,,,0.00,,2013-02-19 12:01:00,
2013-02-19 04:12:00,23.0,20.0,29.83,SW,221,3.0,3.0,87,0.00,,,0.00,,2013-02-19 12:12:00,
2013-02-19 04:21:00,23.0,19.0,29.82,SW,221,1.0,2.0,86,0.00,,,0.00,,2013-02-19 12:21:00,
2013-02-19 04:32:00,23.0,19.0,29.82,SW,221,0.0,3.0,86,0.00,,,0.00,,2013-02-19 12:32:00,
2013-02-19 04:41:00,23.0,19.0,29.82,SW,221,0.0,3.0,86,0.00,,,0.00,,2013-02-19 12:41:00,
2013-02-19 04:52:00,22.0,19.0,29.83,SW,221,2.0,3.0,87,0.00,,,0.00,,2013-02-19 12:52:00,
2013-02-19 05:01:00,23.0,20.0,29.82,SW,221,2.0,3.0,87,0.00,,,0.00,,2013-02-19 13:01:00,
2013-02-19 05:11:00,23.0,20.0,29.82,SW,221,2.0,3.0,87,0.00,,,0.00,,2013-02-19 13:11:00,
2013-02-19 05:22:00,22.0,19.0,29.82,SW,221,1.0,2.0,87,0.00,,,0.00,,2013-02-19 13:22:00,
2013-02-19 05:31:00,21.0,18.0,29.83,SW,221,2.0,2.0,88,0.00,,,0.00,,2013-02-19 13:31:00,
2013-02-19 05:41:00,21.0,18.0,29.83,SW,221,2.0,2.0,88,0.00,,,0.00,,2013-02-19 13:41:00,
2013-02-19 05:52:00,21.0,18.0,29.83,SW,221,0.0,0.0,89,0.00,,,0.00,,2013-02-19 13:52:00,
2013-02-19 06:01:00,21.0,18.0,29.83,SW,221,3.0,5.0,89,0.00,,,0.00,,2013-02-19 14:01:00,
2013-02-19 06:11:00,21.0,18.0,29.83,SW,221,3.0,5.0,89,0.00,,,0.00,,2013-02-19 14:11:00,
2013-02-19 06:21:00,22.0,19.0,29.84,SW,221,3.0,5.0,89,0.00,,,0.00,,2013-02-19 14:21:00,
2013-02-19 06:32:00,22.0,19.0,29.83,West,266,5.0,5.0,89,0.00,,,0.00,,2013-02-19 14:32:00,
2013-02-19 06:41:00,22.0,19.0,29.83,West,266,5.0,5.0,89,0.00,,,0.00,,2013-02-19 14:41:00,
2013-02-19 06:52:00,20.0,17.0,29.84,WNW,286,2.0,3.0,89,0.00,,,0.00,,2013-02-19 14:52:00,
2013-02-19 07:01:00,20.0,18.0,29.84,WNW,286,2.0,3.0,90,0.00,,,0.00,,2013-02-19 15:01:00,
2013-02-19 07:11:00,20.0,18.0,29.84,WNW,286,2.0,3.0,90,0.00,,,0.00,,2013-02-19 15:11:00,
2013-02-19 07:21:00,21.0,19.0,29.84,WNW,286,2.0,3.0,91,0.00,,,0.00,,2013-02-19 15:21:00,
2013-02-19 07:31:00,22.0,20.0,29.84,WNW,286,0.0,2.0,90,0.00,,,0.00,,2013-02-19 15:31:00,
2013-02-19 07:41:00,22.0,20.0,29.84,WNW,286,0.0,2.0,90,0.00,,,0.00,,2013-02-19 15:41:00,
2013-02-19 07:52:00,23.0,20.0,29.84,WNW,286,0.0,1.0,89,0.00,,,0.00,,2013-02-19 15:52:00,
2013-02-19 08:01:00,23.0,20.0,29.85,WNW,286,1.0,2.0,88,0.00,,,0.00,,2013-02-19 16:01:00,
2013-02-19 08:11:00,23.0,20.0,29.85,WNW,286,1.0,2.0,88,0.00,,,0.00,,2013-02-19 16:11:00,
2013-02-19 08:21:00,25.0,22.0,29.85,WNW,286,2.0,3.0,87,0.00,,,0.00,,2013-02-19 16:21:00,
2013-02-19 08:31:00,26.0,22.0,29.85,WNW,286,2.0,3.0,85,0.00,,,0.00,,2013-02-19 16:31:00,
2013-02-19 08:41:00,26.0,22.0,29.85,WNW,286,2.0,3.0,85,0.00,,,0.00,,2013-02-19 16:41:00,
2013-02-19 08:52:00,27.0,23.0,29.86,WNW,286,0.0,0.0,83,0.00,,,0.00,,2013-02-19 16:52:00,
2013-02-19 09:01:00,31.0,26.0,29.85,WNW,286,3.0,3.0,81,0.00,,,0.00,,2013-02-19 17:01:00,
2013-02-19 09:21:00,31.0,26.0,29.85,WNW,286,3.0,3.0,81,0.00,,,0.00,,2013-02-19 17:21:00,
2013-02-19 09:31:00,33.0,26.0,29.86,NNE,12,2.0,5.0,74,0.00,,,0.00,,2013-02-19 17:31:00,
2013-02-19 09:41:00,33.0,26.0,29.86,NNE,12,2.0,5.0,74,0.00,,,0.00,,2013-02-19 17:41:00,
2013-02-19 09:51:00,35.0,26.0,29.86,North,5,3.0,7.0,70,0.00,,,0.00,,2013-02-19 17:51:00,
2013-02-19 10:01:00,35.0,26.0,29.87,NNW,346,3.0,6.0,68,0.00,,,0.00,,2013-02-19 18:01:00,
2013-02-19 10:21:00,36.0,25.0,29.87,NNW,339,2.0,6.0,65,0.00,,,0.00,,2013-02-19 18:21:00,
2013-02-19 10:31:00,36.0,25.0,29.87,NE,35,3.0,6.0,63,0.00,,,0.00,,2013-02-19 18:31:00,
2013-02-19 10:41:00,37.0,26.0,29.86,North,7,5.0,8.0,64,0.00,,,0.00,,2013-02-19 18:41:00,
2013-02-19 10:52:00,37.0,26.0,29.86,North,7,5.0,8.0,64,0.00,,,0.00,,2013-02-19 18:52:00,
2013-02-19 11:01:00,39.0,27.0,29.87,NNW,327,2.0,6.0,63,0.00,,,0.00,,2013-02-19 19:01:00,
2013-02-19 11:11:00,39.0,27.0,29.87,NNW,327,2.0,6.0,63,0.00,,,0.00,,2013-02-19 19:11:00,
2013-02-19 11:21:00,39.0,26.0,29.87,NW,308,4.0,7.0,59,0.00,,,0.00,,2013-02-19 19:21:00,
2013-02-19 11:31:00,40.0,26.0,29.87,NW,316,3.0,6.0,56,0.00,,,0.00,,2013-02-19 19:31:00,
2013-02-19 11:41:00,40.0,26.0,29.87,NW,316,3.0,6.0,56,0.00,,,0.00,,2013-02-19 19:41:00,
2013-02-19 11:52:00,40.0,25.0,29.86,NE,51,2.0,8.0,55,0.00,,,0.00,,2013-02-19 19:52:00,
2013-02-19 12:01:00,42.0,27.0,29.86,NW,319,4.0,9.0,54,0.00,,,0.00,,2013-02-19 20:01:00,
2013-02-19 12:11:00,42.0,27.0,29.86,NW,319,4.0,9.0,54,0.00,,,0.00,,2013-02-19 20:11:00,
2013-02-19 12:21:00,41.0,25.0,29.86,NNE,18,2.0,7.0,53,0.00,,,0.00,,2013-02-19 20:21:00,
2013-02-19 12:31:00,42.0,26.0,29.86,NNE,33,6.0,9.0,52,0.00,,,0.00,,2013-02-19 20:31:00,
2013-02-19 12:41:00,42.0,26.0,29.86,NNE,33,6.0,9.0,52,0.00,,,0.00,,2013-02-19 20:41:00,
2013-02-19 12:52:00,43.0,26.0,29.86,NNE,28,6.0,9.0,51,0.00,,,0.00,,2013-02-19 20:52:00,
2013-02-19 13:01:00,44.0,26.0,29.86,NNW,330,6.0,10.0,48,0.00,,,0.00,,2013-02-19 21:01:00,
2013-02-19 13:11:00,44.0,26.0,29.86,NNW,330,6.0,10.0,48,0.00,,,0.00,,2013-02-19 21:11:00,
2013-02-19 13:21:00,45.0,27.0,29.86,NNW,344,7.0,10.0,48,0.00,,,0.00,,2013-02-19 21:21:00,
2013-02-19 13:31:00,45.0,26.0,29.86,NW,313,6.0,12.0,47,0.00,,,0.00,,2013-02-19 21:31:00,
2013-02-19 13:42:00,45.0,26.0,29.86,NW,313,6.0,12.0,47,0.00,,,0.00,,2013-02-19 21:42:00,
2013-02-19 13:51:00,45.0,26.0,29.86,North,353,8.0,12.0,47,0.00,,,0.00,,2013-02-19 21:51:00,
2013-02-19 14:01:00,44.0,26.0,29.87,NNE,12,3.0,9.0,48,0.00,,,0.00,,2013-02-19 22:01:00,
2013-02-19 14:11:00,44.0,26.0,29.87,NNE,12,3.0,9.0,48,0.00,,,0.00,,2013-02-19 22:11:00,
2013-02-19 14:21:00,45.0,26.0,29.87,NNW,342,5.0,12.0,47,0.00,,,0.00,,2013-02-19 22:21:00,
2013-02-19 14:31:00,46.0,26.0,29.87,NW,318,7.0,12.0,45,0.00,,,0.00,,2013-02-19 22:31:00,
2013-02-19 14:41:00,46.0,26.0,29.87,NW,318,7.0,12.0,45,0.00,,,0.00,,2013-02-19 22:41:00,
2013-02-19 14:52:00,45.0,24.0,29.87,NNE,20,7.0,14.0,44,0.00,,,0.00,,2013-02-19 22:52:00,
2013-02-19 15:01:00,45.0,24.0,29.88,North,352,5.0,12.0,43,0.00,,,0.00,,2013-02-19 23:01:00,
2013-02-19 15:11:00,45.0,24.0,29.88,North,352,5.0,12.0,43,0.00,,,0.00,,2013-02-19 23:11:00,
2013-02-19 15:21:00,45.0,24.0,29.88,North,352,5.0,12.0,43,0.00,,,0.00,,2013-02-19 23:21:00,
2013-02-19 15:31:00,45.0,25.0,29.89,NW,323,9.0,14.0,45,0.00,,,0.00,,2013-02-19 23:31:00,
2013-02-19 15:41:00,45.0,25.0,29.89,NW,323,9.0,14.0,45,0.00,,,0.00,,2013-02-19 23:41:00,
2013-02-19 15:52:00,44.0,23.0,29.90,North,9,7.0,12.0,43,0.00,,,0.00,,2013-02-19 23:52:00,
2013-02-19 16:01:00,44.0,25.0,29.90,NNW,327,9.0,14.0,46,0.00,,,0.00,,2013-02-20 00:01:00,
2013-02-19 16:11:00,44.0,25.0,29.90,NNW,327,9.0,14.0,46,0.00,,,0.00,,2013-02-20 00:11:00,
2013-02-19 16:21:00,44.0,24.0,29.90,NNW,330,7.0,12.0,45,0.00,,,0.00,,2013-02-20 00:21:00,
2013-02-19 16:31:00,42.0,25.0,29.90,North,4,7.0,12.0,50,0.00,,,0.00,,2013-02-20 00:31:00,
2013-02-19 16:41:00,42.0,25.0,29.90,North,4,7.0,12.0,50,0.00,,,0.00,,2013-02-20 00:41:00,
2013-02-19 16:51:00,41.0,25.0,29.91,North,353,7.0,9.0,53,0.00,,,0.00,,2013-02-20 00:51:00,
2013-02-19 17:02:00,40.0,24.0,29.91,North,353,4.0,9.0,52,0.00,,,0.00,,2013-02-20 01:02:00,
2013-02-19 17:11:00,40.0,24.0,29.91,North,353,4.0,9.0,52,0.00,,,0.00,,2013-02-20 01:11:00,
2013-02-19 17:21:00,40.0,26.0,29.92,North,8,6.0,8.0,57,0.00,,,0.00,,2013-02-20 01:21:00,
2013-02-19 17:31:00,39.0,25.0,29.93,NNE,18,7.0,12.0,58,0.00,,,0.00,,2013-02-20 01:31:00,
2013-02-19 17:41:00,39.0,25.0,29.93,NNE,18,7.0,12.0,58,0.00,,,0.00,,2013-02-20 01:41:00,
2013-02-19 17:52:00,38.0,25.0,29.93,North,7,5.0,9.0,60,0.00,,,0.00,,2013-02-20 01:52:00,
2013-02-19 18:01:00,38.0,26.0,29.93,North,8,5.0,7.0,61,0.00,,,0.00,,2013-02-20 02:01:00,
2013-02-19 18:11:00,38.0,26.0,29.93,North,8,5.0,7.0,61,0.00,,,0.00,,2013-02-20 02:11:00,
2013-02-19 18:21:00,37.0,26.0,29.95,North,355,5.0,8.0,65,0.00,,,0.00,,2013-02-20 02:21:00,
2013-02-19 18:31:00,35.0,25.0,29.96,North,5,3.0,7.0,67,0.00,,,0.00,,2013-02-20 02:31:00,
2013-02-19 18:42:00,35.0,25.0,29.96,North,5,3.0,7.0,67,0.00,,,0.00,,2013-02-20 02:42:00,
2013-02-19 18:52:00,34.0,25.0,29.97,North,355,3.0,6.0,69,0.00,,,0.00,,2013-02-20 02:52:00,
2013-02-19 19:01:00,34.0,26.0,29.98,North,355,2.0,3.0,71,0.00,,,0.00,,2013-02-20 03:01:00,
2013-02-19 19:11:00,34.0,26.0,29.98,North,355,2.0,3.0,71,0.00,,,0.00,,2013-02-20 03:11:00,
2013-02-19 19:21:00,33.0,25.0,29.98,North,355,2.0,3.0,73,0.00,,,0.00,,2013-02-20 03:21:00,
2013-02-19 19:31:00,32.0,25.0,29.98,North,355,1.0,2.0,75,0.00,,,0.00,,2013-02-20 03:31:00,
2013-02-19 19:41:00,32.0,25.0,29.98,North,355,1.0,2.0,75,0.00,,,0.00,,2013-02-20 03:41:00,
2013-02-19 19:51:00,31.0,24.0,29.99,North,355,2.0,3.0,76,0.00,,,0.00,,2013-02-20 03:51:00,
2013-02-19 20:01:00,31.0,25.0,29.99,North,355,2.0,3.0,77,0.00,,,0.00,,2013-02-20 04:01:00,
2013-02-19 20:11:00,31.0,25.0,29.99,North,355,2.0,3.0,77,0.00,,,0.00,,2013-02-20 04:11:00,
2013-02-19 20:21:00,30.0,24.0,29.99,North,355,3.0,5.0,78,0.00,,,0.00,,2013-02-20 04:21:00,
2013-02-19 20:31:00,31.0,25.0,30.00,NNW,333,5.0,6.0,77,0.00,,,0.00,,2013-02-20 04:31:00,
2013-02-19 20:41:00,31.0,25.0,30.00,NNW,333,5.0,6.0,77,0.00,,,0.00,,2013-02-20 04:41:00,
2013-02-19 20:51:00,32.0,25.0,30.01,NNW,331,3.0,5.0,76,0.00,,,0.00,,2013-02-20 04:51:00,
2013-02-19 21:02:00,32.0,25.0,30.01,WNW,295,4.0,6.0,76,0.00,,,0.00,,2013-02-20 05:02:00,
2013-02-19 21:12:00,32.0,25.0,30.01,WNW,295,4.0,6.0,76,0.00,,,0.00,,2013-02-20 05:12:00,
2013-02-19 21:22:00,32.0,25.0,30.02,WNW,299,5.0,7.0,75,0.00,,,0.00,,2013-02-20 05:22:00,
2013-02-19 21:31:00,32.0,25.0,30.03,WNW,286,5.0,7.0,75,0.00,,,0.00,,2013-02-20 05:31:00,
2013-02-19 21:42:00,32.0,25.0,30.03,WNW,286,5.0,7.0,75,0.00,,,0.00,,2013-02-20 05:42:00,
2013-02-19 21:52:00,32.0,25.0,30.03,WNW,286,2.0,3.0,75,0.00,,,0.00,,2013-02-20 05:52:00,
2013-02-19 22:01:00,32.0,25.0,30.03,WNW,286,2.0,3.0,75,0.00,,,0.00,,2013-02-20 06:01:00,
2013-02-19 22:11:00,32.0,25.0,30.03,WNW,286,2.0,3.0,75,0.00,,,0.00,,2013-02-20 06:11:00,
2013-02-19 22:21:00,32.0,25.0,30.03,WNW,286,2.0,3.0,75,0.00,,,0.00,,2013-02-20 06:21:00,
2013-02-19 22:31:00,28.0,23.0,30.04,WNW,286,1.0,3.0,81,0.00,,,0.00,,2013-02-20 06:31:00,
2013-02-19 22:42:00,28.0,23.0,30.04,WNW,286,1.0,3.0,81,0.00,,,0.00,,2013-02-20 06:42:00,
2013-02-19 22:52:00,30.0,25.0,30.05,WNW,286,3.0,3.0,80,0.00,,,0.00,,2013-02-20 06:52:00,
2013-02-19 23:01:00,30.0,24.0,30.06,WNW,286,3.0,5.0,79,0.00,,,0.00,,2013-02-20 07:01:00,
2013-02-19 23:11:00,30.0,24.0,30.06,WNW,286,3.0,5.0,79,0.00,,,0.00,,2013-02-20 07:11:00,
2013-02-19 23:21:00,30.0,24.0,30.06,WNW,286,2.0,3.0,79,0.00,,,0.00,,2013-02-20 07:21:00,
2013-02-19 23:31:00,30.0,25.0,30.06,WNW,286,3.0,5.0,80,0.00,,,0.00,,2013-02-20 07:31:00,
2013-02-19 23:41:00,30.0,25.0,30.06,WNW,286,3.0,5.0,80,0.00,,,0.00,,2013-02-20 07:41:00,
2013-02-19 23:52:00,29.0,23.0,30.06,WNW,286,2.0,3.0,78,0.00,,,0.00,,2013-02-20 07:52:00,